Accueil
METAR-TAF:

METAR-TAF

Aéroports :

Base aérienne de Beauvechain

Beauvechain, Belgique

latitude: 50-45N, longitude: 004-46E, altitude: 105 m

Observation

Le bulletin a été fait il y a 25 minutes, à 02:55 UTC
Vent 6 kt de sud-ouest
Température 17°C
Humidité 82%
Pression 1023 hPa
Visibilité 10 km ou plus

METAR: EBBE 200255Z AUTO 23006KT 9999 BKN017/// 17/14 Q1023 WHT

Heure: 05:20 (03:20 UTC)

Prévision

Le bulletin a été fait il y a 11 heures et 39 minutes, à 15:41 UTC
Prévision valable du 19 à 19 UTC au 20 à 07 UTC
Vent 5 kt de ouest
Visibilité 10 km ou plus
Nuages épars à une hauteur de 3000 ft
Temporairement
du 19 à 19 UTC au 19 à 21 UTC
Nuages épars à une hauteur de 2400 ft
Nuages fragmentés à une hauteur de 2800 ft

TAF: EBBE 191541Z 1919/2007 28005KT 9999 SCT030 TEMPO 1919/1921 SCT024 BKN028

Observations et prévisions météorologiques de plus de 4000 aéroports (messages METAR et TAF).

Les stations disponibles sont représentées par des disques jaunes et rouges sur la carte.

Passer la souris dessus pour voir le nom de la station.

Cliquer dessus pour voir les observations et prévisions météorologiques.

Pour changer de carte: cliquez sur les boutons verts avec une croix noire pour zoomer, sur le bouton vert avec un tiret pour effectuer un zoom arrière, ou sur les flèches vertes pour les cartes adjacentes.


METAR-TAF: